Time;durP1;ratioP1;P1;durP2;ratioP2;P2;SDS_P1;SDS_P2;PMS_P1;PMS_P2;Temp;Humidity;BMP_temperature;BMP_pressure;BME280_temperature;BME280_humidity;BME280_pressure;Samples;Min_cycle;Max_cycle;Signal;HPM_P1;HPM_P2
2022/10/21 00:00:13;;;;;;;2.22;2.02;;;;;;;3.71;87.45;100615.05;1706864;84;21046;-73
2022/10/21 00:02:39;;;;;;;3.52;3.22;;;;;;;3.71;87.45;100604.41;1705990;84;20986;-73
2022/10/21 00:05:08;;;;;;;2.98;2.60;;;;;;;3.72;87.43;100611.38;1704293;84;21094;-73
2022/10/21 00:07:36;;;;;;;2.27;2.17;;;;;;;3.70;87.43;100614.72;1717205;81;20959;-72
2022/10/21 00:10:03;;;;;;;2.80;2.47;;;;;;;3.67;87.48;100615.09;1732262;81;21261;-69
2022/10/21 00:12:30;;;;;;;2.25;2.10;;;;;;;3.66;87.65;100607.28;1705300;82;20978;-70
2022/10/21 00:14:57;;;;;;;2.52;2.30;;;;;;;3.65;87.88;100609.12;1745085;81;20974;-72
2022/10/21 00:17:24;;;;;;;3.17;2.87;;;;;;;3.65;88.07;100610.45;1733789;82;21029;-72
2022/10/21 00:19:50;;;;;;;2.70;2.50;;;;;;;3.65;88.17;100614.94;1730064;81;21066;-70
2022/10/21 00:22:17;;;;;;;2.58;2.37;;;;;;;3.63;88.22;100612.48;1710291;81;21223;-71
2022/10/21 00:24:45;;;;;;;4.15;2.50;;;;;;;3.62;88.26;100604.67;1761676;81;21105;-77
2022/10/21 00:27:11;;;;;;;2.22;2.02;;;;;;;3.60;88.39;100602.19;1736346;81;21854;-80
2022/10/21 00:29:39;;;;;;;3.02;2.83;;;;;;;3.60;88.63;100607.50;1736773;82;21171;-80
2022/10/21 00:32:05;;;;;;;4.42;2.37;;;;;;;3.62;88.89;100604.17;1737407;82;21555;-86
2022/10/21 00:34:32;;;;;;;3.30;3.00;;;;;;;3.64;89.04;100608.82;1724941;81;21657;-80
2022/10/21 00:36:59;;;;;;;3.60;3.30;;;;;;;3.67;89.18;100608.94;1738540;81;20967;-90
2022/10/21 00:39:25;;;;;;;2.98;2.42;;;;;;;3.65;89.48;100606.45;1737164;82;21022;-89
2022/10/21 00:41:52;;;;;;;2.67;2.37;;;;;;;3.64;89.58;100613.31;1737077;82;21070;-86
2022/10/21 00:44:18;;;;;;;5.33;2.70;;;;;;;3.61;89.88;100619.80;1732959;81;21034;-91
2022/10/21 00:46:53;;;;;;;3.92;2.15;;;;;;;3.60;90.29;100622.66;1709467;83;21076;-79
2022/10/21 00:49:27;;;;;;;5.10;2.85;;;;;;;3.58;90.72;100620.68;1736710;82;21560;-87
2022/10/21 00:51:57;;;;;;;2.95;2.75;;;;;;;3.57;91.21;100617.69;1745862;81;21074;-87
2022/10/21 00:54:24;;;;;;;3.47;3.17;;;;;;;3.55;91.56;100619.19;1766640;81;21010;-83
2022/10/21 00:56:53;;;;;;;3.05;2.83;;;;;;;3.53;91.96;100623.88;1714238;82;21026;-85
2022/10/21 00:59:22;;;;;;;3.17;2.95;;;;;;;3.52;92.19;100620.89;1710795;84;21196;-86
2022/10/21 01:01:49;;;;;;;3.27;3.08;;;;;;;3.49;92.56;100623.92;1709260;82;21596;-75
2022/10/21 01:04:16;;;;;;;3.22;2.75;;;;;;;3.48;92.89;100624.93;1707856;84;21007;-78
2022/10/21 01:06:43;;;;;;;3.62;2.65;;;;;;;3.48;93.25;100618.28;1699474;83;21030;-77
2022/10/21 01:09:10;;;;;;;6.28;3.15;;;;;;;3.49;93.49;100627.92;1689126;83;21583;-75
2022/10/21 01:11:45;;;;;;;3.37;3.08;;;;;;;3.49;93.66;100627.42;1703198;84;21788;-80
2022/10/21 01:14:35;;;;;;;3.35;3.05;;;;;;;3.49;93.80;100619.94;1703298;84;21111;-75
2022/10/21 01:17:22;;;;;;;5.12;3.08;;;;;;;3.47;93.96;100622.77;1703482;84;21544;-77
2022/10/21 01:20:07;;;;;;;3.83;3.08;;;;;;;3.43;94.06;100613.51;1716249;81;21036;-79
2022/10/21 01:23:14;;;;;;;4.08;3.05;;;;;;;3.42;94.23;100611.02;1686418;83;21091;-77
2022/10/21 01:26:02;;;;;;;3.47;2.45;;;;;;;3.42;94.44;100609.19;1699888;83;21553;-80
2022/10/21 01:28:43;;;;;;;4.90;3.22;;;;;;;3.41;94.49;100604.88;1690471;83;21552;-75
2022/10/21 01:31:24;;;;;;;4.03;3.50;;;;;;;3.42;94.67;100610.52;1722831;83;21028;-83
2022/10/21 01:34:10;;;;;;;4.17;3.62;;;;;;;3.41;94.79;100606.70;1720189;83;21040;-77
2022/10/21 01:36:57;;;;;;;3.85;2.98;;;;;;;3.38;94.88;100604.41;1722971;83;21540;-76
2022/10/21 01:39:28;;;;;;;2.85;2.65;;;;;;;3.35;95.10;100611.44;1722590;81;21781;-77
2022/10/21 01:42:13;;;;;;;3.70;3.33;;;;;;;3.30;95.38;100615.97;1721724;83;21002;-79
2022/10/21 01:45:23;;;;;;;3.58;3.27;;;;;;;3.26;95.74;100623.95;1721571;83;21723;-77
2022/10/21 01:47:56;;;;;;;3.37;2.77;;;;;;;3.22;96.19;100623.98;1723273;81;21084;-69
2022/10/21 01:50:27;;;;;;;4.55;3.70;;;;;;;3.22;96.72;100647.08;1693544;83;21095;-74
2022/10/21 01:53:07;;;;;;;4.45;4.05;;;;;;;3.19;96.91;100657.59;1721618;83;21867;-86
2022/10/21 01:55:34;;;;;;;3.75;3.40;;;;;;;3.13;97.08;100645.50;1722201;83;21008;-83
2022/10/21 01:58:11;;;;;;;4.90;4.17;;;;;;;3.07;97.24;100648.36;1720740;81;21032;-77
2022/10/21 02:00:38;;;;;;;4.12;3.52;;;;;;;3.03;97.33;100649.72;1742248;82;21053;-77
2022/10/21 02:03:09;;;;;;;4.35;3.95;;;;;;;2.99;97.57;100643.95;1728688;81;21088;-78
2022/10/21 02:05:38;;;;;;;4.50;3.80;;;;;;;2.98;97.85;100638.80;1731208;82;22438;-81
2022/10/21 02:08:05;;;;;;;3.75;3.47;;;;;;;2.96;98.14;100635.02;1735100;81;21417;-79
2022/10/21 02:10:36;;;;;;;4.12;3.62;;;;;;;2.97;98.34;100647.27;1737644;81;21014;-85
2022/10/21 02:13:05;;;;;;;5.62;4.12;;;;;;;2.97;98.53;100645.94;1740440;81;21042;-84
2022/10/21 02:15:32;;;;;;;3.95;3.65;;;;;;;2.95;98.67;100646.64;1746547;81;21035;-78
2022/10/21 02:18:06;;;;;;;8.80;3.65;;;;;;;2.92;98.83;100644.34;1715510;81;21846;-78
2022/10/21 02:20:36;;;;;;;4.50;3.75;;;;;;;2.92;98.99;100652.31;1744195;82;20947;-74
2022/10/21 02:23:03;;;;;;;5.05;3.45;;;;;;;2.91;99.18;100651.98;1718630;82;21079;-75
2022/10/21 02:25:33;;;;;;;7.20;3.87;;;;;;;2.93;99.36;100653.95;1723508;82;21049;-74
2022/10/21 02:27:59;;;;;;;5.80;3.95;;;;;;;2.95;99.45;100658.59;1710204;82;20974;-78
2022/10/21 02:30:29;;;;;;;7.00;4.10;;;;;;;2.96;99.55;100653.61;1737694;81;21180;-75
2022/10/21 02:33:17;;;;;;;4.97;4.33;;;;;;;2.97;99.63;100645.94;1719017;83;21024;-78
2022/10/21 02:35:58;;;;;;;3.70;3.30;;;;;;;2.96;99.65;100642.98;1684834;84;21077;-79
2022/10/21 02:38:38;;;;;;;4.60;3.85;;;;;;;2.95;99.62;100648.47;1716363;82;21256;-79
2022/10/21 02:41:09;;;;;;;5.35;3.75;;;;;;;2.96;99.66;100658.09;1752607;81;21011;-77
2022/10/21 02:43:42;;;;;;;4.80;3.75;;;;;;;2.95;99.67;100657.77;1714686;82;21337;-79
2022/10/21 02:46:11;;;;;;;5.28;4.22;;;;;;;2.94;99.73;100655.61;1725134;82;21045;-82
2022/10/21 02:48:38;;;;;;;6.78;4.33;;;;;;;2.96;99.85;100657.59;1738112;82;21063;-80
2022/10/21 02:51:06;;;;;;;5.53;4.20;;;;;;;2.98;99.84;100662.22;1729123;82;20975;-79
2022/10/21 02:53:33;;;;;;;5.05;4.40;;;;;;;2.96;99.68;100660.25;1737813;82;21078;-80
2022/10/21 02:56:00;;;;;;;4.42;4.03;;;;;;;2.94;99.55;100652.12;1711516;82;21119;-81
2022/10/21 02:58:28;;;;;;;6.00;4.30;;;;;;;2.91;99.49;100653.81;1753009;81;21750;-79
2022/10/21 03:00:55;;;;;;;4.92;4.40;;;;;;;2.89;99.43;100657.13;1707834;84;20995;-82
2022/10/21 03:03:22;;;;;;;6.17;4.08;;;;;;;2.85;99.46;100663.31;1735803;82;20956;-79
2022/10/21 03:05:48;;;;;;;5.97;4.33;;;;;;;2.84;99.43;100668.79;1706409;82;21544;-77
2022/10/21 03:08:15;;;;;;;4.03;3.62;;;;;;;2.81;99.44;100673.97;1722425;81;21099;-74
2022/10/21 03:10:42;;;;;;;4.15;3.85;;;;;;;2.80;99.50;100687.41;1737382;82;21306;-78
2022/10/21 03:13:08;;;;;;;5.72;4.85;;;;;;;2.77;99.51;100684.63;1725972;82;21011;-76
2022/10/21 03:15:35;;;;;;;4.25;3.95;;;;;;;2.74;99.45;100676.16;1734226;82;21003;-77
2022/10/21 03:18:02;;;;;;;3.92;3.50;;;;;;;2.71;99.47;100673.36;1729509;82;21058;-78
2022/10/21 03:20:29;;;;;;;6.33;4.10;;;;;;;2.68;99.46;100671.06;1730111;81;21131;-75
2022/10/21 03:22:57;;;;;;;6.58;3.75;;;;;;;2.67;99.56;100673.88;1737832;82;20931;-78
2022/10/21 03:25:23;;;;;;;4.70;4.30;;;;;;;2.66;99.71;100675.71;1735906;82;21232;-83
2022/10/21 03:27:52;;;;;;;3.75;3.45;;;;;;;2.67;99.79;100672.55;1736479;81;21018;-80
2022/10/21 03:30:19;;;;;;;5.55;4.78;;;;;;;2.67;99.83;100680.52;1718102;82;21051;-80
2022/10/21 03:32:45;;;;;;;5.37;4.70;;;;;;;2.66;99.86;100666.91;1737872;82;21351;-82
2022/10/21 03:35:14;;;;;;;5.25;4.05;;;;;;;2.64;99.82;100670.56;1710944;82;21018;-77
2022/10/21 03:37:41;;;;;;;3.90;3.55;;;;;;;2.62;99.84;100663.78;1704600;82;21709;-80
2022/10/21 03:40:09;;;;;;;4.28;3.87;;;;;;;2.59;99.90;100660.96;1709542;82;20956;-77
2022/10/21 03:42:36;;;;;;;4.60;4.20;;;;;;;2.60;100.00;100657.31;1742918;81;21021;-80
2022/10/21 03:45:04;;;;;;;4.20;3.80;;;;;;;2.63;100.00;100653.50;1768728;81;21559;-80
2022/10/21 03:47:31;;;;;;;4.42;4.03;;;;;;;2.66;100.00;100662.43;1754983;81;21058;-80
2022/10/21 03:49:57;;;;;;;4.20;3.60;;;;;;;2.67;100.00;100661.93;1737288;81;21021;-79
2022/10/21 03:52:25;;;;;;;4.12;3.75;;;;;;;2.70;100.00;100653.60;1737584;82;21014;-81
2022/10/21 03:54:52;;;;;;;4.05;3.67;;;;;;;2.72;100.00;100660.41;1749457;81;21082;-81
2022/10/21 03:57:18;;;;;;;4.78;4.35;;;;;;;2.75;100.00;100656.56;1735743;81;22018;-81
2022/10/21 03:59:45;;;;;;;3.77;3.47;;;;;;;2.76;100.00;100655.56;1736483;82;21061;-79
2022/10/21 04:02:12;;;;;;;4.30;3.67;;;;;;;2.74;100.00;100654.91;1738080;82;21565;-81
2022/10/21 04:04:41;;;;;;;4.80;3.92;;;;;;;2.77;100.00;100654.57;1734800;81;21017;-82
2022/10/21 04:07:09;;;;;;;4.53;3.85;;;;;;;2.79;100.00;100652.05;1728949;82;21098;-74
2022/10/21 04:09:35;;;;;;;4.47;4.08;;;;;;;2.82;100.00;100653.55;1714917;83;21092;-76
2022/10/21 04:12:02;;;;;;;4.55;3.98;;;;;;;2.82;100.00;100652.22;1719378;83;21307;-76
2022/10/21 04:14:28;;;;;;;5.45;4.40;;;;;;;2.81;100.00;100655.37;1708325;82;20978;-76
2022/10/21 04:16:55;;;;;;;4.85;3.50;;;;;;;2.82;99.98;100654.88;1731534;82;21027;-76
2022/10/21 04:19:22;;;;;;;11.20;5.40;;;;;;;2.82;99.94;100658.86;1689155;82;21569;-78
2022/10/21 04:21:49;;;;;;;4.65;4.22;;;;;;;2.80;99.91;100656.37;1677984;85;21245;-75
2022/10/21 04:24:16;;;;;;;5.20;4.42;;;;;;;2.82;100.00;100668.98;1699329;82;21004;-77
2022/10/21 04:26:43;;;;;;;7.22;4.53;;;;;;;2.85;100.00;100676.59;1704625;84;21054;-83
2022/10/21 04:29:10;;;;;;;4.42;4.03;;;;;;;2.87;100.00;100673.77;1705208;82;21098;-78
2022/10/21 04:31:37;;;;;;;4.00;3.70;;;;;;;2.88;99.94;100669.59;1700393;84;21092;-77
2022/10/21 04:34:03;;;;;;;5.35;4.60;;;;;;;2.89;99.82;100668.59;1680462;83;21119;-77
2022/10/21 04:36:31;;;;;;;5.35;4.17;;;;;;;2.91;99.76;100669.75;1719118;83;21046;-79
2022/10/21 04:38:57;;;;;;;4.60;4.20;;;;;;;2.90;99.57;100677.39;1685335;84;21093;-77
2022/10/21 04:41:24;;;;;;;6.08;5.00;;;;;;;2.89;99.42;100673.91;1700909;84;21082;-77
2022/10/21 04:43:51;;;;;;;5.70;5.10;;;;;;;2.87;99.23;100675.09;1676936;84;21117;-75
2022/10/21 04:46:19;;;;;;;7.47;4.40;;;;;;;2.88;99.17;100691.34;1704563;84;22531;-77
2022/10/21 04:48:46;;;;;;;5.12;4.40;;;;;;;2.87;99.08;100689.21;1698440;84;21508;-76
2022/10/21 04:51:13;;;;;;;4.58;4.17;;;;;;;2.88;99.04;100677.56;1701565;84;21031;-76
2022/10/21 04:53:40;;;;;;;3.50;3.20;;;;;;;2.89;99.05;100681.88;1700002;82;21118;-77
2022/10/21 04:56:07;;;;;;;5.97;4.92;;;;;;;2.91;99.05;100691.02;1697888;83;21058;-75
2022/10/21 04:58:33;;;;;;;7.60;4.72;;;;;;;2.91;98.98;100684.37;1682890;83;21136;-78
2022/10/21 05:01:00;;;;;;;5.67;5.00;;;;;;;2.89;98.86;100677.89;1700572;82;21050;-77
2022/10/21 05:03:27;;;;;;;8.33;4.65;;;;;;;2.87;98.80;100681.74;1693498;84;21034;-78
2022/10/21 05:05:53;;;;;;;10.60;5.15;;;;;;;2.85;98.83;100687.22;1693497;84;21142;-77
2022/10/21 05:08:20;;;;;;;7.65;5.20;;;;;;;2.86;98.87;100688.05;1710393;81;21106;-79
2022/10/21 05:10:47;;;;;;;6.55;5.50;;;;;;;2.87;98.94;100690.55;1704728;84;21258;-80
2022/10/21 05:13:13;;;;;;;6.60;5.28;;;;;;;2.92;99.03;100694.00;1720533;83;21524;-79
2022/10/21 05:15:41;;;;;;;4.95;4.55;;;;;;;2.96;99.05;100692.64;1677207;85;20959;-79
2022/10/21 05:18:08;;;;;;;5.97;4.70;;;;;;;2.98;99.02;100683.47;1719660;81;20999;-78
2022/10/21 05:20:36;;;;;;;4.87;4.37;;;;;;;3.00;98.85;100685.97;1677592;84;21579;-75
2022/10/21 05:23:04;;;;;;;7.53;5.42;;;;;;;3.02;98.71;100679.98;1699019;81;21925;-76
2022/10/21 05:25:34;;;;;;;12.70;5.53;;;;;;;3.02;98.66;100682.11;1733654;81;21556;-79
2022/10/21 05:28:00;;;;;;;7.25;5.60;;;;;;;3.05;98.71;100686.27;1715967;81;21003;-79
2022/10/21 05:30:27;;;;;;;6.85;5.28;;;;;;;3.08;98.72;100685.90;1654454;85;21084;-79
2022/10/21 05:32:55;;;;;;;10.48;5.42;;;;;;;3.14;98.78;100678.55;1678655;85;21109;-80
2022/10/21 05:35:22;;;;;;;5.92;5.08;;;;;;;3.21;98.83;100685.33;1700784;82;21165;-77
2022/10/21 05:37:50;;;;;;;6.72;4.20;;;;;;;3.26;98.71;100680.31;1706962;84;20994;-75
2022/10/21 05:40:17;;;;;;;6.42;4.62;;;;;;;3.32;98.54;100683.56;1721934;83;21039;-77
2022/10/21 05:42:44;;;;;;;6.08;5.25;;;;;;;3.36;98.40;100688.84;1721926;82;21503;-77
2022/10/21 05:45:12;;;;;;;5.00;4.15;;;;;;;3.40;98.18;100692.32;1720379;82;21665;-77
2022/10/21 05:47:40;;;;;;;7.95;6.35;;;;;;;3.40;97.89;100693.66;1722295;83;21216;-77
2022/10/21 05:50:10;;;;;;;6.47;4.97;;;;;;;3.40;97.62;100692.82;1705179;82;21073;-77
2022/10/21 05:52:37;;;;;;;6.67;4.83;;;;;;;3.38;97.43;100682.36;1705753;84;21155;-78
2022/10/21 05:55:05;;;;;;;5.47;5.08;;;;;;;3.40;97.37;100693.66;1704667;84;21058;-76
2022/10/21 05:57:33;;;;;;;7.67;4.85;;;;;;;3.44;97.34;100705.58;1724459;81;29483;-81
2022/10/21 06:00:00;;;;;;;6.22;4.47;;;;;;;3.47;97.14;100702.55;1728126;81;21242;-80
2022/10/21 06:02:27;;;;;;;12.50;4.58;;;;;;;3.47;96.92;100707.04;1737684;82;20955;-79
2022/10/21 06:04:53;;;;;;;5.87;4.60;;;;;;;3.49;96.84;100703.71;1730676;82;21083;-77
2022/10/21 06:07:20;;;;;;;6.80;4.72;;;;;;;3.48;96.69;100713.52;1708097;84;21074;-79
2022/10/21 06:09:46;;;;;;;4.50;4.10;;;;;;;3.48;96.69;100706.88;1699633;82;21020;-80
2022/10/21 06:12:12;;;;;;;5.28;4.78;;;;;;;3.49;96.58;100710.36;1682964;84;21118;-79
2022/10/21 06:14:39;;;;;;;6.55;4.90;;;;;;;3.51;96.52;100714.98;1708231;82;20940;-80
2022/10/21 06:17:05;;;;;;;6.80;4.70;;;;;;;3.56;96.56;100713.94;1708363;84;21560;-80
2022/10/21 06:19:32;;;;;;;6.80;4.20;;;;;;;3.62;96.52;100714.56;1704582;82;21547;-79
2022/10/21 06:21:59;;;;;;;4.95;4.55;;;;;;;3.70;96.34;100713.66;1708439;84;21019;-78
2022/10/21 06:24:26;;;;;;;5.00;4.37;;;;;;;3.74;96.14;100710.45;1708060;84;21139;-77
2022/10/21 06:26:54;;;;;;;8.23;4.28;;;;;;;3.76;95.87;100721.75;1706622;82;21616;-78
2022/10/21 06:29:20;;;;;;;4.33;3.92;;;;;;;3.79;95.75;100720.05;1701234;82;21587;-77
2022/10/21 06:31:48;;;;;;;5.65;5.12;;;;;;;3.82;95.56;100714.38;1708382;84;21019;-76
2022/10/21 06:34:15;;;;;;;5.40;4.15;;;;;;;3.83;95.28;100716.05;1713742;82;20987;-78
2022/10/21 06:36:42;;;;;;;5.65;4.30;;;;;;;3.87;95.17;100716.00;1720228;81;21166;-79
2022/10/21 06:39:08;;;;;;;3.80;3.40;;;;;;;3.92;95.11;100712.80;1709270;82;20999;-80
2022/10/21 06:41:34;;;;;;;5.03;3.70;;;;;;;3.99;95.06;100712.88;1734240;82;21034;-75
2022/10/21 06:44:04;;;;;;;6.15;3.95;;;;;;;4.05;94.82;100711.66;1717237;81;21111;-79
2022/10/21 06:46:32;;;;;;;6.20;4.75;;;;;;;4.12;94.62;100725.06;1700020;84;21030;-75
2022/10/21 06:49:01;;;;;;;6.40;5.80;;;;;;;4.20;94.54;100726.30;1694323;82;21097;-77
2022/10/21 06:51:28;;;;;;;7.22;4.15;;;;;;;4.28;94.36;100728.87;1706009;82;21029;-74
2022/10/21 06:53:57;;;;;;;5.15;4.65;;;;;;;4.35;94.17;100731.96;1706886;84;22223;-77
2022/10/21 06:56:24;;;;;;;5.20;4.08;;;;;;;4.42;93.83;100732.53;1730424;82;21058;-76
2022/10/21 06:58:51;;;;;;;3.98;3.67;;;;;;;4.46;93.54;100734.64;1715353;82;21111;-76
2022/10/21 07:01:25;;;;;;;4.67;3.30;;;;;;;4.54;93.16;100733.23;1707071;82;21030;-77
2022/10/21 07:03:52;;;;;;;4.30;3.12;;;;;;;4.63;92.71;100733.45;1703164;84;21011;-77
2022/10/21 07:06:18;;;;;;;4.42;4.03;;;;;;;4.73;92.18;100732.66;1699260;84;21622;-74
2022/10/21 07:08:46;;;;;;;3.22;2.92;;;;;;;4.91;90.43;100740.25;1709787;82;21508;-77
2022/10/21 07:11:13;;;;;;;6.60;3.60;;;;;;;4.91;90.43;100740.25;1716317;83;21086;-76
2022/10/21 07:13:40;;;;;;;4.15;3.30;;;;;;;4.98;89.57;100735.83;1745510;82;21153;-76
2022/10/21 07:16:19;;;;;;;3.65;3.00;;;;;;;5.06;88.50;100744.21;1715766;83;22286;-75
2022/10/21 07:18:46;;;;;;;5.50;4.00;;;;;;;5.11;87.72;100741.30;1730042;82;21091;-78
2022/10/21 07:21:16;;;;;;;3.98;3.62;;;;;;;5.23;87.31;100740.28;1723592;82;21019;-76
2022/10/21 07:23:45;;;;;;;3.42;3.10;;;;;;;5.32;86.53;100747.17;1719254;83;21281;-76
2022/10/21 07:26:13;;;;;;;4.17;2.87;;;;;;;5.42;85.62;100746.86;1678307;84;21972;-79
2022/10/21 07:28:41;;;;;;;4.30;3.52;;;;;;;5.51;85.06;100743.05;1689360;82;22316;-77
2022/10/21 07:31:07;;;;;;;4.58;3.20;;;;;;;5.59;84.47;100740.23;1693582;82;21505;-76
2022/10/21 07:33:34;;;;;;;4.40;3.33;;;;;;;5.67;84.08;100742.77;1685725;85;21563;-77
2022/10/21 07:36:11;;;;;;;3.70;3.30;;;;;;;5.74;83.62;100744.17;1686010;85;21476;-74
2022/10/21 07:38:37;;;;;;;3.30;3.00;;;;;;;5.81;82.97;100742.36;1690283;82;21154;-80
2022/10/21 07:41:04;;;;;;;5.33;3.75;;;;;;;5.88;82.51;100740.62;1697144;82;21050;-79
2022/10/21 07:43:31;;;;;;;2.85;2.60;;;;;;;5.96;82.03;100742.63;1692664;84;21035;-79
2022/10/21 07:45:58;;;;;;;4.33;3.52;;;;;;;6.05;81.08;100744.64;1699188;84;21023;-78
2022/10/21 07:48:25;;;;;;;3.67;3.20;;;;;;;6.15;80.32;100750.47;1696931;82;21686;-77
2022/10/21 07:50:51;;;;;;;4.05;3.17;;;;;;;6.26;79.68;100748.59;1689398;82;21140;-78
2022/10/21 07:53:19;;;;;;;6.55;3.87;;;;;;;6.35;79.29;100747.92;1700258;84;21002;-79
2022/10/21 07:55:46;;;;;;;5.85;4.67;;;;;;;6.44;78.76;100738.73;1699218;84;21066;-75
2022/10/21 07:58:13;;;;;;;3.47;3.17;;;;;;;6.50;77.72;100745.96;1696116;82;21005;-75
2022/10/21 08:00:42;;;;;;;3.58;3.22;;;;;;;6.54;76.89;100745.37;1699486;84;21110;-74
2022/10/21 08:03:11;;;;;;;4.40;3.40;;;;;;;6.59;76.39;100751.45;1699482;84;21171;-77
2022/10/21 08:05:40;;;;;;;5.00;3.00;;;;;;;6.65;76.13;100753.86;1688601;84;21579;-77
2022/10/21 08:08:08;;;;;;;4.92;3.95;;;;;;;6.69;76.35;100753.77;1698253;82;21111;-78
2022/10/21 08:10:40;;;;;;;4.50;3.92;;;;;;;6.74;76.45;100741.46;1769795;80;21058;-79
2022/10/21 08:13:11;;;;;;;6.05;3.85;;;;;;;6.80;76.22;100746.53;1750265;81;21029;-77
2022/10/21 08:15:44;;;;;;;3.45;3.15;;;;;;;6.84;75.64;100745.10;1701055;82;21067;-82
2022/10/21 08:18:13;;;;;;;7.70;3.27;;;;;;;6.93;75.39;100745.23;1704976;84;21030;-79
2022/10/21 08:20:43;;;;;;;4.70;3.70;;;;;;;7.01;74.80;100747.72;1752059;80;21222;-77
2022/10/21 08:23:11;;;;;;;5.65;3.55;;;;;;;7.07;74.67;100749.60;1742958;81;22344;-79
2022/10/21 08:25:38;;;;;;;4.53;4.12;;;;;;;7.11;73.96;100750.84;1728727;81;21034;-78
2022/10/21 08:28:05;;;;;;;4.42;3.58;;;;;;;7.13;73.79;100741.29;1728867;83;21121;-75
2022/10/21 08:30:32;;;;;;;4.53;3.90;;;;;;;7.15;73.56;100744.06;1691884;82;21102;-80
2022/10/21 08:32:58;;;;;;;3.40;3.10;;;;;;;7.18;73.42;100745.52;1730549;81;21078;-80
2022/10/21 08:35:27;;;;;;;3.85;2.90;;;;;;;7.21;73.31;100735.75;1728689;82;21526;-79
2022/10/21 08:37:54;;;;;;;3.02;2.70;;;;;;;7.27;72.75;100734.95;1737602;82;21191;-79
2022/10/21 08:40:21;;;;;;;3.95;3.50;;;;;;;7.33;71.77;100732.80;1737923;81;21665;-77
2022/10/21 08:42:47;;;;;;;4.80;3.55;;;;;;;7.39;70.74;100734.13;1720783;81;21567;-78
2022/10/21 08:45:28;;;;;;;4.72;3.02;;;;;;;7.46;70.37;100734.16;1737188;82;21542;-81
2022/10/21 08:47:58;;;;;;;3.85;3.50;;;;;;;7.55;70.06;100739.63;1706173;83;21105;-78
2022/10/21 08:50:29;;;;;;;4.90;3.08;;;;;;;7.63;69.93;100735.39;1711208;81;21054;-81
2022/10/21 08:53:13;;;;;;;5.30;3.35;;;;;;;7.71;69.16;100732.54;1720844;80;21766;-81
2022/10/21 08:55:41;;;;;;;6.55;3.20;;;;;;;7.79;68.33;100732.33;1737879;82;20975;-79
2022/10/21 08:58:18;;;;;;;7.78;2.92;;;;;;;7.86;67.93;100725.64;1763489;80;21081;-79
2022/10/21 09:00:55;;;;;;;3.40;3.10;;;;;;;7.95;67.66;100739.64;1748763;80;21701;-77
2022/10/21 09:03:53;;;;;;;3.10;2.80;;;;;;;8.02;67.43;100737.25;1710678;82;21042;-79
2022/10/21 09:06:32;;;;;;;4.50;3.02;;;;;;;8.09;67.37;100741.27;1747642;82;21082;-80
2022/10/21 09:09:25;;;;;;;3.20;2.90;;;;;;;8.17;67.48;100739.71;1712392;82;21598;-75
2022/10/21 09:12:00;;;;;;;3.90;3.08;;;;;;;8.29;66.24;100738.06;1725760;81;21088;-79
2022/10/21 09:14:46;;;;;;;2.83;2.52;;;;;;;8.29;66.24;100738.06;1740356;81;20986;-81
2022/10/21 09:17:52;;;;;;;4.05;2.87;;;;;;;8.32;66.04;100724.26;1743763;81;21126;-80
2022/10/21 09:20:38;;;;;;;3.98;3.08;;;;;;;8.35;65.82;100737.23;1734991;80;20988;-83
2022/10/21 09:23:25;;;;;;;5.90;3.12;;;;;;;8.40;65.50;100729.38;1730356;82;21118;-80
2022/10/21 09:26:03;;;;;;;2.72;2.37;;;;;;;8.45;65.09;100735.45;1740853;80;20924;-85
2022/10/21 09:28:29;;;;;;;5.35;2.42;;;;;;;8.48;64.50;100737.22;1695435;82;21063;-84
2022/10/21 09:30:59;;;;;;;4.67;2.45;;;;;;;8.53;64.47;100737.41;1751544;80;21143;-80
2022/10/21 09:33:29;;;;;;;4.22;2.72;;;;;;;8.55;63.63;100742.55;1737361;82;21110;-80
2022/10/21 09:36:06;;;;;;;4.62;2.40;;;;;;;8.51;62.20;100735.96;1751608;80;21607;-81
2022/10/21 09:38:45;;;;;;;2.42;2.22;;;;;;;8.49;62.74;100724.09;1726036;83;21058;-82
2022/10/21 09:41:22;;;;;;;2.75;2.40;;;;;;;8.53;61.75;100743.29;1742702;80;21047;-78
2022/10/21 09:43:49;;;;;;;3.27;2.95;;;;;;;8.54;61.32;100720.27;1707864;83;21065;-74
2022/10/21 09:46:15;;;;;;;3.83;2.75;;;;;;;8.57;62.11;100729.25;1733779;81;21250;-81
2022/10/21 09:48:48;;;;;;;3.55;2.67;;;;;;;8.61;62.22;100735.00;1743775;80;21050;-81
2022/10/21 09:51:28;;;;;;;8.30;3.12;;;;;;;8.62;61.69;100731.30;1729580;80;21063;-80
2022/10/21 09:53:58;;;;;;;3.70;2.55;;;;;;;8.62;61.95;100730.78;1743561;80;21012;-82
2022/10/21 09:56:30;;;;;;;3.98;2.83;;;;;;;8.64;61.82;100738.08;1721021;82;21086;-81
2022/10/21 09:59:13;;;;;;;8.18;3.37;;;;;;;8.66;61.99;100723.95;1696094;84;21937;-80
2022/10/21 10:01:41;;;;;;;3.47;2.98;;;;;;;8.66;62.60;100724.47;1743583;80;21600;-72
2022/10/21 10:04:33;;;;;;;3.58;2.90;;;;;;;8.66;62.74;100718.59;1749637;82;21074;-72
2022/10/21 10:07:22;;;;;;;3.20;2.90;;;;;;;8.69;62.96;100715.47;1747401;82;21022;-76
2022/10/21 10:09:49;;;;;;;3.67;2.85;;;;;;;8.71;63.02;100710.73;1708989;82;21019;-75
2022/10/21 10:12:24;;;;;;;3.30;2.95;;;;;;;8.75;62.66;100705.25;1719850;83;21065;-79
2022/10/21 10:14:51;;;;;;;3.95;2.80;;;;;;;8.79;62.39;100721.73;1707836;83;21067;-74
2022/10/21 10:17:32;;;;;;;5.30;3.45;;;;;;;8.82;61.18;100709.25;1657961;86;21584;-76
2022/10/21 10:20:13;;;;;;;2.40;2.20;;;;;;;8.81;60.24;100707.59;1672489;83;21157;-85
2022/10/21 10:22:44;;;;;;;3.02;2.77;;;;;;;8.81;59.92;100703.57;1673372;83;20984;-73
2022/10/21 10:25:27;;;;;;;2.58;2.45;;;;;;;8.79;60.55;100697.59;1677454;84;21101;-74
2022/10/21 10:28:07;;;;;;;2.87;2.58;;;;;;;8.88;60.02;100698.98;1688651;83;21114;-78
2022/10/21 10:30:46;;;;;;;3.12;2.92;;;;;;;8.94;59.10;100689.27;1718915;82;21102;-80
2022/10/21 10:33:20;;;;;;;3.42;3.10;;;;;;;8.98;58.54;100690.47;1719749;82;21524;-77
2022/10/21 10:35:51;;;;;;;2.62;2.42;;;;;;;9.04;58.37;100697.67;1705251;82;21056;-84
2022/10/21 10:38:44;;;;;;;3.25;2.90;;;;;;;9.10;57.94;100702.19;1683259;83;21239;-78
2022/10/21 10:41:14;;;;;;;2.72;2.52;;;;;;;9.13;57.58;100705.25;1720146;82;21353;-77
2022/10/21 10:43:44;;;;;;;2.70;2.50;;;;;;;9.14;57.16;100694.83;1725154;82;21511;-82
2022/10/21 10:46:23;;;;;;;2.87;2.70;;;;;;;9.12;56.91;100697.41;1720119;82;22145;-77
2022/10/21 10:48:52;;;;;;;2.50;2.35;;;;;;;9.11;56.52;100708.66;1682088;83;21027;-78
2022/10/21 10:51:29;;;;;;;3.22;3.02;;;;;;;9.09;56.63;100700.53;1703910;83;20968;-80
2022/10/21 10:54:12;;;;;;;3.05;2.83;;;;;;;9.07;55.68;100697.23;1729784;82;21108;-80
2022/10/21 10:56:46;;;;;;;3.02;2.83;;;;;;;9.03;55.72;100691.48;1722667;82;21517;-81
2022/10/21 10:59:25;;;;;;;2.72;2.52;;;;;;;9.02;56.06;100684.98;1713883;82;21543;-80
2022/10/21 11:02:00;;;;;;;2.62;2.42;;;;;;;8.98;56.35;100677.88;1704100;82;21056;-82
2022/10/21 11:04:52;;;;;;;4.00;3.70;;;;;;;8.95;56.58;100662.23;1709289;82;21257;-74
2022/10/21 11:07:33;;;;;;;3.90;3.60;;;;;;;8.96;56.81;100664.39;1710981;82;21043;-76
2022/10/21 11:10:14;;;;;;;3.35;3.05;;;;;;;8.96;55.77;100651.80;1718855;80;21011;-88
2022/10/21 11:12:41;;;;;;;4.15;3.02;;;;;;;8.96;56.20;100648.30;1715026;82;21036;-87
2022/10/21 11:15:13;;;;;;;4.75;3.77;;;;;;;9.01;56.58;100649.81;1724334;81;21546;-86
2022/10/21 11:17:42;;;;;;;3.63;3.33;;;;;;;9.03;56.38;100651.23;1723677;83;21113;-84
2022/10/21 11:20:40;;;;;;;3.08;2.77;;;;;;;9.09;56.41;100645.00;1722834;83;21156;-78
2022/10/21 11:23:15;;;;;;;3.55;3.00;;;;;;;9.15;56.13;100642.80;1723097;83;21053;-77
2022/10/21 11:25:45;;;;;;;4.03;3.62;;;;;;;9.17;56.70;100638.54;1719809;81;21073;-79
2022/10/21 11:28:36;;;;;;;5.62;3.92;;;;;;;9.18;56.38;100640.19;1739118;82;21018;-76
2022/10/21 15:51:04;;;;;;;16.65;10.53;;;;;;;8.26;59.68;100624.55;1663332;83;21120;-75
2022/10/21 16:00:31;;;;;;;9.53;7.60;;;;;;;8.02;63.12;100627.41;1631261;86;21042;-77
2022/10/21 16:10:29;;;;;;;9.75;7.95;;;;;;;7.82;63.68;100623.44;1550263;87;21179;-70
2022/10/21 16:12:56;;;;;;;23.62;10.30;;;;;;;7.78;63.93;100614.17;1652249;85;21004;-71
2022/10/21 16:15:23;;;;;;;13.32;8.68;;;;;;;7.75;64.38;100614.61;1651183;85;20980;-71
2022/10/21 16:17:55;;;;;;;17.20;9.25;;;;;;;7.69;64.86;100615.43;1667494;84;21035;-72
2022/10/21 16:20:29;;;;;;;14.78;9.68;;;;;;;7.66;65.07;100618.54;1692450;83;21074;-73
2022/10/21 16:22:58;;;;;;;15.35;10.13;;;;;;;7.62;65.07;100614.64;1668748;83;21541;-71